createdAt,value
2023-04-16T00:02:08.016Z,99528.75
2023-04-16T00:04:37.847Z,99541.47
2023-04-16T00:07:07.535Z,99530.78
2023-04-16T00:09:37.173Z,99530.13
2023-04-16T00:12:07.662Z,99534.00
2023-04-16T00:14:37.310Z,99540.34
2023-04-16T00:17:06.987Z,99535.81
2023-04-16T00:19:36.818Z,99525.44
2023-04-16T00:22:06.463Z,99524.22
2023-04-16T00:24:36.204Z,99530.66
2023-04-16T00:27:05.894Z,99532.06
2023-04-16T00:29:36.368Z,99532.34
2023-04-16T00:32:05.985Z,99526.84
2023-04-16T00:34:35.660Z,99541.41
2023-04-16T00:37:05.314Z,99544.81
2023-04-16T00:39:34.937Z,99540.41
2023-04-16T00:42:04.571Z,99530.56
2023-04-16T00:44:37.504Z,99527.31
2023-04-16T00:47:08.967Z,99535.31
2023-04-16T00:49:39.064Z,99545.31
2023-04-16T00:52:08.931Z,99536.56
2023-04-16T00:54:38.596Z,99533.91
2023-04-16T00:57:09.093Z,99537.81
2023-04-16T00:59:38.791Z,99549.78
2023-04-16T01:02:08.812Z,99541.03
2023-04-16T01:04:38.636Z,99549.19
2023-04-16T01:07:08.244Z,99561.13
2023-04-16T01:09:37.777Z,99557.56
2023-04-16T01:12:07.379Z,99559.56
2023-04-16T01:14:37.906Z,99563.94
2023-04-16T01:17:07.527Z,99571.88
2023-04-16T01:19:40.069Z,99571.25
2023-04-16T01:22:09.665Z,99567.84
2023-04-16T01:24:39.685Z,99568.00
2023-04-16T01:27:09.305Z,99566.22
2023-04-16T01:29:39.182Z,99564.75
2023-04-16T01:32:08.900Z,99573.38
2023-04-16T01:34:38.528Z,99567.13
2023-04-16T01:37:08.139Z,99564.03
2023-04-16T01:39:37.786Z,99550.25
2023-04-16T01:42:07.455Z,99561.91
2023-04-16T01:44:37.198Z,99560.19
2023-04-16T01:47:06.852Z,99565.38
2023-04-16T01:49:37.509Z,99565.88
2023-04-16T01:52:07.366Z,99568.66
2023-04-16T01:54:36.909Z,99569.91
2023-04-16T01:57:06.530Z,99567.78
2023-04-16T01:59:36.168Z,99578.03
2023-04-16T02:02:14.243Z,99577.69
2023-04-16T02:04:48.062Z,99577.66
2023-04-16T02:07:17.806Z,99577.63
2023-04-16T02:09:47.473Z,99575.38
2023-04-16T02:12:17.161Z,99575.09
2023-04-16T02:14:46.915Z,99546.09
2023-04-16T02:17:17.157Z,99576.91
2023-04-16T02:19:46.863Z,99568.44
2023-04-16T02:22:16.453Z,99574.16
2023-04-16T02:24:46.027Z,99570.72
2023-04-16T02:27:15.596Z,99561.31
2023-04-16T02:29:45.715Z,99557.69
2023-04-16T02:32:15.325Z,99566.50
2023-04-16T02:34:45.013Z,99576.25
2023-04-16T02:37:16.792Z,99587.91
2023-04-16T02:39:46.662Z,99575.88
2023-04-16T02:42:17.320Z,99578.66
2023-04-16T02:44:46.896Z,99575.78
2023-04-16T02:47:16.448Z,99580.13
2023-04-16T02:49:46.050Z,99566.91
2023-04-16T02:52:15.713Z,99565.34
2023-04-16T02:54:45.367Z,99573.84
2023-04-16T02:57:14.942Z,99575.25
2023-04-16T02:59:44.500Z,99563.28
2023-04-16T03:02:15.382Z,99569.03
2023-04-16T03:04:45.132Z,99558.41
2023-04-16T03:07:15.268Z,99557.88
2023-04-16T03:09:44.809Z,99559.81
2023-04-16T03:12:14.386Z,99564.69
2023-04-16T03:14:43.968Z,99562.38
2023-04-16T03:17:13.648Z,99552.78
2023-04-16T03:19:43.168Z,99560.22
2023-04-16T03:22:12.728Z,99563.22
2023-04-16T03:24:42.288Z,99556.88
2023-04-16T03:27:11.953Z,99568.09
2023-04-16T03:29:41.634Z,99570.66
2023-04-16T03:32:11.282Z,99564.19
2023-04-16T03:34:41.091Z,99571.91
2023-04-16T03:37:13.411Z,99577.69
2023-04-16T03:39:43.092Z,99575.69
2023-04-16T03:42:12.758Z,99578.97
2023-04-16T03:44:42.442Z,99580.53
2023-04-16T03:47:12.088Z,99590.69
2023-04-16T03:49:41.784Z,99579.66
2023-04-16T03:52:12.806Z,99562.50
2023-04-16T03:54:42.441Z,99578.69
2023-04-16T03:57:12.129Z,99580.75
2023-04-16T03:59:41.670Z,99581.00
2023-04-16T04:02:11.361Z,99590.69
2023-04-16T04:04:41.256Z,99591.44
2023-04-16T04:07:11.004Z,99593.44
2023-04-16T04:09:40.582Z,99592.06
2023-04-16T04:12:11.513Z,99590.34
2023-04-16T04:14:41.537Z,99593.44
2023-04-16T04:17:11.538Z,99580.22
2023-04-16T04:19:47.045Z,99588.19
2023-04-16T04:22:20.500Z,99591.59
2023-04-16T04:24:50.143Z,99592.66
2023-04-16T04:27:19.735Z,99591.47
2023-04-16T04:29:49.295Z,99593.91
2023-04-16T04:32:18.876Z,99591.44
2023-04-16T04:34:48.492Z,99591.22
2023-04-16T04:37:18.079Z,99592.41
2023-04-16T04:39:47.706Z,99587.06
2023-04-16T04:42:20.359Z,99583.13
2023-04-16T04:44:50.252Z,99580.22
2023-04-16T04:47:19.861Z,99577.34
2023-04-16T04:49:49.481Z,99575.97
2023-04-16T04:52:19.055Z,99572.28
2023-04-16T04:54:48.803Z,99569.16
2023-04-16T04:57:18.493Z,99562.56
2023-04-16T04:59:48.119Z,99561.13
2023-04-16T05:02:17.780Z,99569.28
2023-04-16T05:04:47.418Z,99582.84
2023-04-16T05:07:17.293Z,99575.97
2023-04-16T05:09:46.998Z,99573.44
2023-04-16T05:12:16.646Z,99570.41
2023-04-16T05:14:46.204Z,99572.28
2023-04-16T05:17:15.850Z,99566.69
2023-04-16T05:19:45.435Z,99562.63
2023-04-16T05:22:15.154Z,99562.56
2023-04-16T05:24:44.707Z,99564.16
2023-04-16T05:27:14.364Z,99557.53
2023-04-16T05:29:43.936Z,99553.84
2023-04-16T05:32:13.510Z,99551.72
2023-04-16T05:34:43.028Z,99545.16
2023-04-16T05:37:12.621Z,99552.19
2023-04-16T05:39:42.209Z,99551.69
2023-04-16T05:42:11.910Z,99549.34
2023-04-16T05:44:42.302Z,99565.09
2023-04-16T05:47:12.352Z,99563.72
2023-04-16T05:49:42.059Z,99557.72
2023-04-16T05:52:11.817Z,99564.63
2023-04-16T05:54:41.412Z,99557.94
2023-04-16T05:57:10.960Z,99571.94
2023-04-16T05:59:40.511Z,99559.47
2023-04-16T06:02:10.206Z,99568.25
2023-04-16T06:04:39.859Z,99554.44
2023-04-16T06:07:09.455Z,99560.25
2023-04-16T06:09:42.692Z,99562.41
2023-04-16T06:12:12.299Z,99570.19
2023-04-16T06:14:41.847Z,99557.00
2023-04-16T06:17:11.426Z,99554.22
2023-04-16T06:19:40.997Z,99557.38
2023-04-16T06:22:10.591Z,99560.25
2023-04-16T06:24:40.163Z,99545.66
2023-04-16T06:27:09.735Z,99554.03
2023-04-16T06:29:41.411Z,99558.28
2023-04-16T06:32:12.189Z,99563.38
2023-04-16T06:34:42.240Z,99561.41
2023-04-16T06:37:12.026Z,99565.63
2023-04-16T06:39:41.665Z,99562.22
2023-04-16T06:42:11.288Z,99571.34
2023-04-16T06:44:40.916Z,99578.06
2023-04-16T06:47:10.599Z,99568.75
2023-04-16T06:49:41.437Z,99565.09
2023-04-16T06:52:11.049Z,99569.94
2023-04-16T06:54:40.661Z,99562.06
2023-04-16T06:57:10.208Z,99567.41
2023-04-16T06:59:39.828Z,99573.56
2023-04-16T07:02:13.292Z,99576.97
2023-04-16T07:04:42.295Z,99582.41
2023-04-16T07:07:11.945Z,99572.72
2023-04-16T07:09:41.619Z,99580.91
2023-04-16T07:12:11.312Z,99568.59
2023-04-16T07:14:40.930Z,99574.13
2023-04-16T07:17:10.537Z,99571.13
2023-04-16T07:19:40.147Z,99569.94
2023-04-16T07:22:09.749Z,99568.31
2023-04-16T07:24:39.351Z,99564.75
2023-04-16T07:27:08.903Z,99535.09
2023-04-16T07:29:38.479Z,99577.00
2023-04-16T07:32:08.192Z,99578.84
2023-04-16T07:34:37.922Z,99586.59
2023-04-16T07:37:07.640Z,99586.34
2023-04-16T07:39:37.287Z,99584.25
2023-04-16T07:42:07.007Z,99587.88
2023-04-16T07:44:36.568Z,99586.22
2023-04-16T07:47:06.220Z,99591.31
2023-04-16T07:49:35.887Z,99587.84
2023-04-16T07:52:05.529Z,99595.59
2023-04-16T07:54:35.132Z,99607.16
2023-04-16T07:57:04.990Z,99604.38
2023-04-16T07:59:34.625Z,99615.00
2023-04-16T08:02:04.261Z,99613.38
2023-04-16T08:04:34.157Z,99611.44
2023-04-16T08:07:03.918Z,99614.25
2023-04-16T08:09:33.481Z,99618.16
2023-04-16T08:12:03.455Z,99612.91
2023-04-16T08:14:33.002Z,99614.59
2023-04-16T08:17:02.774Z,99622.16
2023-04-16T08:19:32.658Z,99623.66
2023-04-16T08:22:02.375Z,99632.31
2023-04-16T08:24:32.012Z,99630.47
2023-04-16T08:27:11.437Z,99634.84
2023-04-16T08:29:44.946Z,99639.03
2023-04-16T08:32:14.947Z,99637.03
2023-04-16T08:34:45.041Z,99650.69
2023-04-16T08:37:14.639Z,99665.13
2023-04-16T08:39:44.192Z,99665.75
2023-04-16T08:42:26.533Z,99676.00
2023-04-16T08:45:06.255Z,99672.44
2023-04-16T08:47:38.836Z,99678.47
2023-04-16T08:50:10.895Z,99679.41
2023-04-16T08:52:47.935Z,99669.97
2023-04-16T08:55:20.869Z,99677.53
2023-04-16T08:57:56.169Z,99679.84
2023-04-16T09:00:26.478Z,99685.75
2023-04-16T09:02:56.526Z,99690.81
2023-04-16T09:05:27.863Z,99701.97
2023-04-16T09:07:57.442Z,99706.88
2023-04-16T09:10:29.200Z,99710.41
2023-04-16T09:12:59.567Z,99730.94
2023-04-16T09:15:29.483Z,99726.22
2023-04-16T09:17:59.370Z,99730.25
2023-04-16T09:20:28.978Z,99730.22
2023-04-16T09:22:58.817Z,99733.50
2023-04-16T09:25:28.429Z,99736.41
2023-04-16T09:27:58.592Z,99729.38
2023-04-16T09:30:29.639Z,99738.34
2023-04-16T09:33:23.748Z,99743.25
2023-04-16T09:35:56.168Z,99742.41
2023-04-16T09:38:28.054Z,99723.41
2023-04-16T09:41:10.581Z,99754.41
2023-04-16T09:43:41.884Z,99752.34
2023-04-16T09:46:14.457Z,99748.44
2023-04-16T09:48:47.707Z,99762.41
2023-04-16T09:51:17.497Z,99758.50
2023-04-16T09:53:47.165Z,99762.06
2023-04-16T09:56:16.976Z,99761.94
2023-04-16T09:58:47.522Z,99759.66
2023-04-16T10:01:20.494Z,99758.50
2023-04-16T10:03:52.928Z,99774.63
2023-04-16T10:06:29.742Z,99766.34
2023-04-16T10:08:59.277Z,99772.81
2023-04-16T10:11:28.899Z,99780.16
2023-04-16T10:13:58.505Z,99779.50
2023-04-16T10:16:28.781Z,99772.00
2023-04-16T10:19:00.591Z,99799.88
2023-04-16T10:21:35.131Z,99807.50
2023-04-16T10:24:05.842Z,99813.00
2023-04-16T10:26:37.304Z,99822.28
2023-04-16T10:29:08.942Z,99812.13
2023-04-16T10:31:40.628Z,99816.31
2023-04-16T10:34:12.484Z,99821.22
2023-04-16T10:36:42.203Z,99832.06
2023-04-16T10:39:17.233Z,99834.72
2023-04-16T10:41:48.033Z,99836.00
2023-04-16T10:44:20.853Z,99848.25
2023-04-16T10:46:51.502Z,99849.25
2023-04-16T10:49:25.277Z,99859.72
2023-04-16T10:52:04.697Z,99849.41
2023-04-16T10:54:37.132Z,99849.56
2023-04-16T10:57:11.424Z,99853.81
2023-04-16T10:59:44.112Z,99842.63
2023-04-16T11:02:18.544Z,99860.53
2023-04-16T11:04:50.289Z,99862.16
2023-04-16T11:07:19.983Z,99871.16
2023-04-16T11:10:03.661Z,99873.25
2023-04-16T11:12:48.288Z,99876.44
2023-04-16T11:15:21.055Z,99888.13
2023-04-16T11:17:53.112Z,99897.72
2023-04-16T11:20:27.796Z,99901.19
2023-04-16T11:22:59.506Z,99905.66
2023-04-16T11:25:35.566Z,99910.88
2023-04-16T11:28:05.468Z,99920.06
2023-04-16T11:30:37.793Z,99914.56
2023-04-16T11:33:09.977Z,99918.94
2023-04-16T11:35:44.908Z,99927.06
2023-04-16T11:38:14.473Z,99933.00
2023-04-16T11:40:45.037Z,99929.00
2023-04-16T11:43:18.941Z,99933.38
2023-04-16T11:46:16.173Z,99929.38
2023-04-16T11:48:55.869Z,99944.78
2023-04-16T11:51:26.020Z,99943.66
2023-04-16T11:53:56.498Z,99948.38
2023-04-16T11:56:34.275Z,99947.97
2023-04-16T11:59:11.384Z,99956.41
2023-04-16T12:01:43.175Z,99961.78
2023-04-16T12:04:12.827Z,99967.91
2023-04-16T12:06:42.820Z,99978.63
2023-04-16T12:09:31.654Z,99982.41
2023-04-16T12:12:01.236Z,99978.72
2023-04-16T12:14:31.336Z,99972.13
2023-04-16T12:17:23.943Z,99985.03
2023-04-16T12:20:07.566Z,99991.88
2023-04-16T12:22:39.338Z,99990.53
2023-04-16T12:25:13.667Z,99997.88
2023-04-16T12:27:52.384Z,100004.50
2023-04-16T12:30:25.096Z,100009.50
2023-04-16T12:33:16.130Z,99999.72
2023-04-16T12:35:46.503Z,99990.75
2023-04-16T12:38:19.167Z,99994.84
2023-04-16T12:40:49.061Z,99992.28
2023-04-16T12:43:18.769Z,99999.34
2023-04-16T12:45:48.467Z,100003.81
2023-04-16T12:48:18.057Z,99995.97
2023-04-16T12:50:48.064Z,100011.88
2023-04-16T12:53:17.673Z,100010.25
2023-04-16T12:55:47.389Z,100007.38
2023-04-16T12:58:17.034Z,100020.53
2023-04-16T13:00:46.608Z,100012.78
2023-04-16T13:03:16.641Z,100022.56
2023-04-16T13:05:46.472Z,100033.38
2023-04-16T13:08:16.081Z,100025.81
2023-04-16T13:10:45.689Z,100031.81
2023-04-16T13:13:15.231Z,100047.44
2023-04-16T13:15:44.775Z,100052.13
2023-04-16T13:18:14.340Z,100061.50
2023-04-16T13:20:43.990Z,100061.81
2023-04-16T13:23:13.928Z,100058.94
2023-04-16T13:25:43.562Z,100068.91
2023-04-16T13:28:13.197Z,100078.09
2023-04-16T13:30:43.287Z,100075.06
2023-04-16T13:33:13.433Z,100079.75
2023-04-16T13:35:43.047Z,100085.44
2023-04-16T13:38:13.471Z,100096.16
2023-04-16T13:40:43.224Z,100089.63
2023-04-16T13:43:13.056Z,100100.34
2023-04-16T13:45:43.060Z,100102.81
2023-04-16T13:48:12.784Z,100103.91
2023-04-16T13:50:42.427Z,100111.44
2023-04-16T13:53:12.044Z,100110.25
2023-04-16T13:55:41.708Z,100113.41
2023-04-16T13:58:12.482Z,100118.44
2023-04-16T14:00:42.152Z,100119.66
2023-04-16T14:03:12.350Z,100121.13
2023-04-16T14:05:42.794Z,100125.06
2023-04-16T14:08:12.535Z,100130.47
2023-04-16T14:10:42.300Z,100135.00
2023-04-16T14:13:12.601Z,100145.19
2023-04-16T14:15:42.316Z,100130.78
2023-04-16T14:18:11.932Z,100157.25
2023-04-16T14:20:42.033Z,100167.59
2023-04-16T14:23:11.661Z,100172.47
2023-04-16T14:25:41.588Z,100180.78
2023-04-16T14:28:11.919Z,100173.78
2023-04-16T14:30:42.599Z,100173.22
2023-04-16T14:33:12.165Z,100177.09
2023-04-16T14:35:41.847Z,100185.34
2023-04-16T14:38:11.472Z,100177.16
2023-04-16T14:40:41.048Z,100193.81
2023-04-16T14:43:10.643Z,100190.38
2023-04-16T14:45:40.517Z,100195.88
2023-04-16T14:48:10.198Z,100207.41
2023-04-16T14:50:40.540Z,100205.56
2023-04-16T14:53:10.100Z,100204.75
2023-04-16T14:55:39.895Z,100217.78
2023-04-16T14:58:09.780Z,100215.78
2023-04-16T15:00:39.539Z,100221.88
2023-04-16T15:03:09.369Z,100218.44
2023-04-16T15:05:39.020Z,100229.25
2023-04-16T15:08:08.774Z,100232.38
2023-04-16T15:10:39.305Z,100233.50
2023-04-16T15:13:08.901Z,100234.69
2023-04-16T15:15:39.180Z,100239.97
2023-04-16T15:18:08.815Z,100241.69
2023-04-16T15:20:38.438Z,100245.19
2023-04-16T15:23:08.088Z,100245.53
2023-04-16T15:25:37.756Z,100257.53
2023-04-16T15:28:08.030Z,100248.72
2023-04-16T15:30:37.978Z,100263.47
2023-04-16T15:33:07.850Z,100263.66
2023-04-16T15:35:42.728Z,100264.97
2023-04-16T15:38:12.688Z,100265.84
2023-04-16T15:40:43.615Z,100263.16
2023-04-16T15:43:13.216Z,100279.56
2023-04-16T15:45:42.946Z,100277.94
2023-04-16T15:48:12.650Z,100276.94
2023-04-16T15:50:42.316Z,100276.78
2023-04-16T15:53:12.050Z,100272.16
2023-04-16T15:55:41.743Z,100275.38
2023-04-16T15:58:11.456Z,100271.41
2023-04-16T16:00:41.164Z,100287.94
2023-04-16T16:03:11.976Z,100282.56
2023-04-16T16:05:42.545Z,100295.66
2023-04-16T16:08:13.414Z,100284.91
2023-04-16T16:10:43.210Z,100286.22
2023-04-16T16:13:15.559Z,100284.22
2023-04-16T16:15:45.282Z,100283.50
2023-04-16T16:18:15.004Z,100296.84
2023-04-16T16:20:44.620Z,100297.91
2023-04-16T16:23:14.410Z,100296.78
2023-04-16T16:25:44.118Z,100302.84
2023-04-16T16:28:13.695Z,100304.44
2023-04-16T16:30:43.276Z,100312.63
2023-04-16T16:33:13.263Z,100314.03
2023-04-16T16:35:42.865Z,100321.41
2023-04-16T16:38:12.581Z,100317.31
2023-04-16T16:40:42.184Z,100321.53
2023-04-16T16:43:11.828Z,100309.13
2023-04-16T16:45:41.511Z,100311.63
2023-04-16T16:48:11.290Z,100319.81
2023-04-16T16:50:40.962Z,100317.63
2023-04-16T16:53:10.733Z,100318.22
2023-04-16T16:55:40.786Z,100320.34
2023-04-16T16:58:11.218Z,100317.59
2023-04-16T17:00:40.934Z,100311.03
2023-04-16T17:03:10.639Z,100315.06
2023-04-16T17:05:40.494Z,100314.03
2023-04-16T17:08:10.037Z,100307.75
2023-04-16T17:10:39.636Z,100313.63
2023-04-16T17:13:09.220Z,100308.44
2023-04-16T17:15:38.799Z,100312.00
2023-04-16T17:18:08.449Z,100312.59
2023-04-16T17:20:38.009Z,100315.25
2023-04-16T17:23:07.666Z,100317.47
2023-04-16T17:25:37.738Z,100314.47
2023-04-16T17:28:07.450Z,100317.19
2023-04-16T17:30:37.306Z,100319.16
2023-04-16T17:33:07.174Z,100317.53
2023-04-16T17:35:36.961Z,100333.41
2023-04-16T17:38:06.537Z,100325.19
2023-04-16T17:40:36.155Z,100326.00
2023-04-16T17:43:06.259Z,100332.88
2023-04-16T17:45:36.144Z,100320.84
2023-04-16T17:48:06.595Z,100328.22
2023-04-16T17:50:38.247Z,100325.50
2023-04-16T17:53:09.124Z,100323.81
2023-04-16T17:55:38.763Z,100342.47
2023-04-16T17:58:08.365Z,100340.22
2023-04-16T18:00:37.992Z,100339.97
2023-04-16T18:03:07.939Z,100339.97
2023-04-16T18:05:37.616Z,100329.59
2023-04-16T18:08:07.466Z,100331.81
2023-04-16T18:10:37.189Z,100338.34
2023-04-16T18:13:06.877Z,100337.78
2023-04-16T18:15:40.135Z,100329.59
2023-04-16T18:18:10.348Z,100315.94
2023-04-16T18:20:40.002Z,100326.03
2023-04-16T18:23:09.713Z,100332.06
2023-04-16T18:25:40.322Z,100342.22
2023-04-16T18:28:13.656Z,100338.63
2023-04-16T18:30:43.780Z,100333.44
2023-04-16T18:33:38.894Z,100331.78
2023-04-16T18:36:03.853Z,100339.19
2023-04-16T18:38:33.540Z,100336.72
2023-04-16T18:41:03.533Z,100336.16
2023-04-16T18:43:33.106Z,100333.94
2023-04-16T18:46:02.905Z,100335.91
2023-04-16T18:48:32.679Z,100345.75
2023-04-16T18:51:02.286Z,100349.88
2023-04-16T18:53:32.020Z,100357.50
2023-04-16T18:56:02.090Z,100362.16
2023-04-16T18:58:31.991Z,100376.16
2023-04-16T19:01:01.587Z,100371.19
2023-04-16T19:03:32.520Z,100377.75
2023-04-16T19:06:02.152Z,100374.78
2023-04-16T19:08:31.991Z,100382.69
2023-04-16T19:11:01.675Z,100380.47
2023-04-16T19:13:32.056Z,100390.88
2023-04-16T19:16:02.552Z,100389.53
2023-04-16T19:18:32.407Z,100393.91
2023-04-16T19:21:02.637Z,100398.56
2023-04-16T19:23:32.396Z,100396.94
2023-04-16T19:26:02.940Z,100394.19
2023-04-16T19:28:32.497Z,100402.59
2023-04-16T19:31:02.118Z,100395.50
2023-04-16T19:33:32.791Z,100395.25
2023-04-16T19:36:03.322Z,100400.19
2023-04-16T19:38:35.692Z,100414.66
2023-04-16T19:41:05.270Z,100410.81
2023-04-16T19:43:34.967Z,100422.88
2023-04-16T19:46:05.202Z,100418.22
2023-04-16T19:48:34.847Z,100415.47
2023-04-16T19:51:05.615Z,100414.34
2023-04-16T19:53:36.260Z,100416.22
2023-04-16T19:56:05.898Z,100414.09
2023-04-16T19:58:35.540Z,100410.84
2023-04-16T20:01:11.694Z,100412.47
2023-04-16T20:03:41.424Z,100425.88
2023-04-16T20:06:11.153Z,100426.97
2023-04-16T20:08:40.739Z,100432.50
2023-04-16T20:11:10.627Z,100440.16
2023-04-16T20:13:40.396Z,100445.63
2023-04-16T20:16:10.789Z,100446.13
2023-04-16T20:18:42.882Z,100455.44
2023-04-16T20:21:13.074Z,100450.50
2023-04-16T20:23:42.626Z,100451.59
2023-04-16T20:26:12.231Z,100455.69
2023-04-16T20:28:41.874Z,100456.50
2023-04-16T20:31:11.547Z,100468.22
2023-04-16T20:33:41.191Z,100474.03
2023-04-16T20:36:10.985Z,100482.28
2023-04-16T20:38:40.775Z,100474.34
2023-04-16T20:41:16.018Z,100472.44
2023-04-16T20:43:45.604Z,100482.00
2023-04-16T20:46:15.363Z,100485.56
2023-04-16T20:48:45.017Z,100480.38
2023-04-16T20:51:14.667Z,100488.56
2023-04-16T20:53:44.237Z,100505.81
2023-04-16T20:56:16.306Z,100499.81
2023-04-16T20:58:45.847Z,100504.72
2023-04-16T21:01:15.571Z,100511.59
2023-04-16T21:03:45.404Z,100509.38
2023-04-16T21:06:19.362Z,100516.22
2023-04-16T21:08:49.067Z,100520.06
2023-04-16T21:11:18.687Z,100509.69
2023-04-16T21:13:48.323Z,100512.97
2023-04-16T21:16:18.118Z,100525.16
2023-04-16T21:18:47.832Z,100523.38
2023-04-16T21:21:17.549Z,100527.75
2023-04-16T21:23:47.229Z,100529.16
2023-04-16T21:26:16.968Z,100523.72
2023-04-16T21:28:46.746Z,100530.81
2023-04-16T21:31:16.388Z,100536.59
2023-04-16T21:33:45.940Z,100535.56
2023-04-16T21:36:15.569Z,100535.00
2023-04-16T21:38:45.249Z,100528.97
2023-04-16T21:41:14.817Z,100541.84
2023-04-16T21:43:44.391Z,100540.94
2023-04-16T21:46:13.941Z,100549.88
2023-04-16T21:48:43.575Z,100555.00
2023-04-16T21:51:13.147Z,100556.03
2023-04-16T21:53:42.857Z,100563.16
2023-04-16T21:56:12.460Z,100566.81
2023-04-16T21:58:42.152Z,100570.44
2023-04-16T22:01:11.800Z,100578.78
2023-04-16T22:03:41.776Z,100583.25
2023-04-16T22:06:11.400Z,100582.38
2023-04-16T22:08:41.162Z,100578.22
2023-04-16T22:11:10.765Z,100578.81
2023-04-16T22:13:43.839Z,100580.25
2023-04-16T22:16:13.872Z,100575.38
2023-04-16T22:18:44.326Z,100579.28
2023-04-16T22:21:13.922Z,100578.41
2023-04-16T22:23:43.621Z,100593.66
2023-04-16T22:26:14.374Z,100599.00
2023-04-16T22:28:43.944Z,100616.94
2023-04-16T22:31:13.570Z,100623.41
2023-04-16T22:33:43.139Z,100632.38
2023-04-16T22:36:12.723Z,100631.38
2023-04-16T22:38:42.285Z,100635.59
2023-04-16T22:41:11.921Z,100639.81
2023-04-16T22:43:42.004Z,100630.75
2023-04-16T22:46:11.901Z,100636.06
2023-04-16T22:48:41.537Z,100633.13
2023-04-16T22:51:11.514Z,100639.72
2023-04-16T22:53:41.044Z,100634.69
2023-04-16T22:56:10.639Z,100634.50
2023-04-16T22:58:40.320Z,100642.78
2023-04-16T23:01:10.009Z,100639.78
2023-04-16T23:03:39.772Z,100660.81
2023-04-16T23:06:09.579Z,100659.72
2023-04-16T23:08:39.122Z,100667.34
2023-04-16T23:11:08.728Z,100661.63
2023-04-16T23:13:38.834Z,100669.22
2023-04-16T23:16:08.917Z,100677.16
2023-04-16T23:18:38.550Z,100663.69
2023-04-16T23:21:08.205Z,100672.88
2023-04-16T23:23:38.189Z,100679.09
2023-04-16T23:26:07.866Z,100677.16
2023-04-16T23:28:37.602Z,100671.31
2023-04-16T23:31:07.718Z,100684.66
2023-04-16T23:33:37.357Z,100679.38
2023-04-16T23:36:07.438Z,100666.41
2023-04-16T23:38:37.092Z,100662.59
2023-04-16T23:41:07.019Z,100677.50
2023-04-16T23:43:36.735Z,100674.81
2023-04-16T23:46:06.367Z,100678.94
2023-04-16T23:48:36.063Z,100690.91
2023-04-16T23:51:05.739Z,100688.22
2023-04-16T23:53:37.850Z,100687.25
2023-04-16T23:56:07.737Z,100687.03
2023-04-16T23:58:37.346Z,100689.91
